RJSC/GAJ METAR and TAF weather

Enter ICAO airport designator
Station Type Date Time Source
RJSC METAR 2023/02/05 23:00 UTC NOAA

RJSC 052300Z VRB01KT 9999 FEW010 SCT020 BKN050 M03/M04 Q1021


Station Type Date Time Source
RJSC Decoded METAR 2023/02/05 23:00 UTC NOAA

Yamagata Airport, Japan (RJSC) 38-25N 140-22E 108M
Feb 05, 2023 - 06:00 PM EST / 2023.02.05 2300 UTC
Wind: Variable at 1 MPH (1 KT):0
Visibility: greater than 7 mile(s):0
Sky conditions: mostly cloudy
Temperature: 26 F (-3 C)
Dew Point: 24 F (-4 C)
Relative Humidity: 92%
Pressure (altimeter): 30.15 in. Hg (1021 hPa)
ob: RJSC 052300Z VRB01KT 9999 FEW010 SCT020 BKN050 M03/M04 Q1021
cycle: 23

Station Type Date Time Source
RJSC TAF UTC NOAA

Error!

Example: see airport list